Lumberton, NC (28358)

1:20 PM EDT on March 27, 2015 (GMT -0400)
Fayetteville Road | | Change Station
CLOSE
Current Station
Personal Weather Station
Location: Lumberton, NC
Elevation: 126 ft
Nearby Weather Stations

Elev 126 ft 34.67 °N, 78.99 °W | Updated 1 second ago

Rain
Rain
49.9 °F
Feels Like 50 °F
N
0.0
Wind Variable Wind from NE
Gusts 13.0 mph

Today
High -- | Low -- °F
--% Chance of Precip.
Yesterday
High -- | Low -- °F
Precip. -- in
7:10 AM 7:33 PM
First Quarter, 54% visible
Pressure 29.68 in
Visibility 2.5 miles
Clouds Few 800 ft
Mostly Cloudy 1200 ft
Overcast 4800 ft
Windchill 50 °F
Dew Point 49 °F
Humidity 98%
Rainfall 0.18 in
Snow Depth Not available.
UV 3 out of 12
Pollen 5.90 out of 12
Air Quality Not available.
Flu Activity Not available.
SPECI KLBT 271711Z AUTO 04013G20KT 2 1/2SM TSRA BR FEW008 BKN012 OVC048 10/08 A2968 RMK AO2 LTG DSNT S AND SW TSB11 P0005 T01000083

More Conditions Fewer Conditions

Pressure 29.68 in
Visibility 2.5 miles
Clouds Few 800 ft
Mostly Cloudy 1200 ft
Overcast 4800 ft
Windchill 50 °F
Dew Point 49 °F
Humidity 98%
Rainfall 0.18 in
Snow Depth Not available.
UV 3 out of 12
Pollen 5.90 out of 12
Air Quality Not available.
Flu Activity Not available.
SPECI KLBT 271711Z AUTO 04013G20KT 2 1/2SM TSRA BR FEW008 BKN012 OVC048 10/08 A2968 RMK AO2 LTG DSNT S AND SW TSB11 P0005 T01000083

More Conditions Fewer Conditions

10-Day Weather Forecast

Almanac

Astronomy

Mar. 27, 2015 Rise Set
Actual Time
Civil Twilight
Nautical Twilight
Astronomical Twilight
Moon
Length of Visible Light
Length of Day
Tomorrow will be .
, % of the Moon is Illuminated

Today's Extremes

State Highs State Lows

Community

WunderPhotos

Upload Photos

1,808,769 photos uploaded!

WunderBlogs® & News

Nearby

Air Quality

  Air Quality AQ Index Pollutant
Not available.

Snow Depth

Station Depth Elevation

Earthquake Activity

City Distance Mag. Time & Date
Minimum magnitude displayed is 2.5.

Coastal Water Temperatures

Place Temperature

Stations

Nearby Weather Stations

Station Location Temp. Windchill Dew Point Humidity Wind Precip. Elev Updated Type